Time,TemperatureF,DewpointF,PressureIn,WindDirection,WindDirectionDegrees,WindSpeedMPH,WindSpeedGustMPH,Humidity,HourlyPrecipIn,Conditions,Clouds,dailyrainin,SoftwareType,DateUTC
2013-09-19 00:00:00,50.7,46.1,30.09,SSW,202,0.0,0.0,84,0.00,CLR,,0.00,WeatherDisplay:10.37,2013-09-19 04:00:00,
2013-09-19 00:01:00,50.7,46.1,30.09,SSW,202,0.0,0.0,84,0.00,CLR,,0.00,WeatherDisplay:10.37,2013-09-19 04:01:00,
2013-09-19 00:06:00,50.7,46.1,30.09,SSW,202,0.0,0.0,84,0.00,CLR,,0.00,WeatherDisplay:10.37,2013-09-19 04:06:00,
2013-09-19 00:09:00,50.7,46.4,30.09,SSW,202,0.0,0.0,85,0.00,CLR,,0.00,WeatherDisplay:10.37,2013-09-19 04:09:00,
2013-09-19 00:14:00,50.5,46.2,30.09,SSW,202,0.0,0.0,85,0.00,CLR,,0.00,WeatherDisplay:10.37,2013-09-19 04:14:00,
2013-09-19 00:19:00,50.4,46.0,30.08,SSW,202,0.0,0.0,85,0.00,CLR,,0.00,WeatherDisplay:10.37,2013-09-19 04:19:00,
2013-09-19 00:24:00,50.4,46.0,30.09,SSW,202,0.0,0.0,85,0.00,CLR,,0.00,WeatherDisplay:10.37,2013-09-19 04:24:00,
2013-09-19 00:29:00,50.2,45.8,30.09,SSW,202,0.0,0.0,85,0.00,CLR,,0.00,WeatherDisplay:10.37,2013-09-19 04:29:00,
2013-09-19 00:34:00,50.0,45.7,30.09,SSW,202,0.0,0.0,85,0.00,CLR,,0.00,WeatherDisplay:10.37,2013-09-19 04:34:00,
2013-09-19 00:39:00,49.8,45.5,30.09,SSW,202,0.0,0.0,85,0.00,CLR,,0.00,WeatherDisplay:10.37,2013-09-19 04:39:00,
2013-09-19 00:44:00,49.6,45.3,30.09,SSW,202,0.0,0.0,85,0.00,CLR,,0.00,WeatherDisplay:10.37,2013-09-19 04:44:00,
2013-09-19 00:49:00,49.6,45.3,30.09,SSW,202,0.0,0.0,85,0.00,CLR,,0.00,WeatherDisplay:10.37,2013-09-19 04:49:00,
2013-09-19 00:54:00,49.5,44.8,30.09,SSW,202,0.0,0.0,84,0.00,CLR,,0.00,WeatherDisplay:10.37,2013-09-19 04:54:00,
2013-09-19 00:59:00,49.3,44.6,30.10,SSW,202,0.0,0.0,84,0.00,CLR,,0.00,WeatherDisplay:10.37,2013-09-19 04:59:00,
2013-09-19 01:04:00,49.1,44.5,30.10,SSW,202,0.0,0.0,84,0.00,CLR,,0.00,WeatherDisplay:10.37,2013-09-19 05:04:00,
2013-09-19 01:09:00,49.1,44.5,30.10,SSW,202,0.0,0.0,84,0.00,CLR,,0.00,WeatherDisplay:10.37,2013-09-19 05:09:00,
2013-09-19 01:14:00,48.9,44.3,30.10,SSW,202,0.0,0.0,84,0.00,CLR,,0.00,WeatherDisplay:10.37,2013-09-19 05:14:00,
2013-09-19 01:19:00,48.7,44.4,30.09,SSW,202,0.0,0.0,85,0.00,CLR,,0.00,WeatherDisplay:10.37,2013-09-19 05:19:00,
2013-09-19 01:24:00,48.6,44.3,30.09,SSW,202,0.0,0.0,85,0.00,CLR,,0.00,WeatherDisplay:10.37,2013-09-19 05:24:00,
2013-09-19 01:29:00,48.6,44.3,30.10,SSW,202,0.0,0.0,85,0.00,CLR,,0.00,WeatherDisplay:10.37,2013-09-19 05:29:00,
2013-09-19 01:34:00,48.4,44.1,30.09,SSW,202,0.0,0.0,85,0.00,CLR,,0.00,WeatherDisplay:10.37,2013-09-19 05:34:00,
2013-09-19 01:39:00,48.4,44.1,30.09,SSW,202,0.0,0.0,85,0.00,CLR,,0.00,WeatherDisplay:10.37,2013-09-19 05:39:00,
2013-09-19 01:44:00,48.2,43.9,30.09,SSW,202,0.0,0.0,85,0.00,CLR,,0.00,WeatherDisplay:10.37,2013-09-19 05:44:00,
2013-09-19 01:49:00,48.2,43.9,30.09,SSW,202,0.0,0.0,85,0.00,CLR,,0.00,WeatherDisplay:10.37,2013-09-19 05:49:00,
2013-09-19 01:54:00,48.2,43.9,30.09,SSW,202,0.0,0.0,85,0.00,CLR,,0.00,WeatherDisplay:10.37,2013-09-19 05:54:00,
2013-09-19 01:59:00,48.0,43.7,30.09,SSW,202,0.0,0.0,85,0.00,CLR,,0.00,WeatherDisplay:10.37,2013-09-19 05:59:00,
2013-09-19 02:04:00,48.0,43.7,30.08,SSW,202,0.0,0.0,85,0.00,CLR,,0.00,WeatherDisplay:10.37,2013-09-19 06:04:00,
2013-09-19 02:09:00,47.8,43.5,30.08,SSW,202,0.0,0.0,85,0.00,CLR,,0.00,WeatherDisplay:10.37,2013-09-19 06:09:00,
2013-09-19 02:14:00,47.8,43.5,30.08,SSW,202,0.0,0.0,85,0.00,CLR,,0.00,WeatherDisplay:10.37,2013-09-19 06:14:00,
2013-09-19 02:19:00,47.8,43.5,30.08,SSW,202,0.0,0.0,85,0.00,CLR,,0.00,WeatherDisplay:10.37,2013-09-19 06:19:00,
2013-09-19 02:24:00,47.8,43.5,30.08,SSW,202,0.0,0.0,85,0.00,CLR,,0.00,WeatherDisplay:10.37,2013-09-19 06:24:00,
2013-09-19 02:29:00,47.8,43.5,30.08,SSW,202,0.0,0.0,85,0.00,CLR,,0.00,WeatherDisplay:10.37,2013-09-19 06:29:00,
2013-09-19 02:34:00,47.8,43.5,30.08,SSW,202,0.0,0.0,85,0.00,CLR,,0.00,WeatherDisplay:10.37,2013-09-19 06:34:00,
2013-09-19 02:39:00,47.7,43.4,30.08,SSW,202,0.0,0.0,85,0.00,CLR,,0.00,WeatherDisplay:10.37,2013-09-19 06:39:00,
2013-09-19 02:44:00,47.5,43.2,30.08,SSW,202,0.0,0.0,85,0.00,CLR,,0.00,WeatherDisplay:10.37,2013-09-19 06:44:00,
2013-09-19 02:49:00,47.5,43.2,30.08,SSW,202,0.0,0.0,85,0.00,CLR,,0.00,WeatherDisplay:10.37,2013-09-19 06:49:00,
2013-09-19 02:54:00,47.3,43.0,30.08,SSW,202,0.0,0.0,85,0.00,CLR,,0.00,WeatherDisplay:10.37,2013-09-19 06:54:00,
2013-09-19 02:59:00,47.1,42.8,30.07,SSW,202,0.0,0.0,85,0.00,CLR,,0.00,WeatherDisplay:10.37,2013-09-19 06:59:00,
2013-09-19 03:04:00,47.1,43.1,30.07,SSW,202,0.0,0.0,86,0.00,CLR,,0.00,WeatherDisplay:10.37,2013-09-19 07:04:00,
2013-09-19 03:09:00,47.1,43.1,30.07,SSW,202,0.0,0.0,86,0.00,CLR,,0.00,WeatherDisplay:10.37,2013-09-19 07:09:00,
2013-09-19 03:14:00,47.1,43.1,30.07,SSW,202,0.0,0.0,86,0.00,CLR,,0.00,WeatherDisplay:10.37,2013-09-19 07:14:00,
2013-09-19 03:19:00,47.1,43.1,30.07,SSW,202,0.0,0.0,86,0.00,CLR,,0.00,WeatherDisplay:10.37,2013-09-19 07:19:00,
2013-09-19 03:24:00,47.1,43.1,30.07,SSW,202,0.0,0.0,86,0.00,CLR,,0.00,WeatherDisplay:10.37,2013-09-19 07:24:00,
2013-09-19 03:29:00,47.1,43.1,30.07,SSW,202,0.0,0.0,86,0.00,CLR,,0.00,WeatherDisplay:10.37,2013-09-19 07:29:00,
2013-09-19 03:34:00,46.9,43.0,30.07,SSW,202,0.0,0.0,86,0.00,CLR,,0.00,WeatherDisplay:10.37,2013-09-19 07:34:00,
2013-09-19 03:39:00,46.8,42.8,30.07,SSW,202,0.0,0.0,86,0.00,CLR,,0.00,WeatherDisplay:10.37,2013-09-19 07:39:00,
2013-09-19 03:44:00,46.6,42.6,30.07,SSW,202,0.0,0.0,86,0.00,CLR,,0.00,WeatherDisplay:10.37,2013-09-19 07:44:00,
2013-09-19 03:49:00,46.4,42.4,30.06,SSW,202,0.0,0.0,86,0.00,CLR,,0.00,WeatherDisplay:10.37,2013-09-19 07:49:00,
2013-09-19 03:54:00,46.2,42.3,30.07,SSW,202,0.0,0.0,86,0.00,CLR,,0.00,WeatherDisplay:10.37,2013-09-19 07:54:00,
2013-09-19 03:59:00,46.0,42.1,30.07,SSW,202,0.0,0.0,86,0.00,CLR,,0.00,WeatherDisplay:10.37,2013-09-19 07:59:00,
2013-09-19 04:04:00,46.0,42.4,30.07,SSW,202,0.0,0.0,87,0.00,CLR,,0.00,WeatherDisplay:10.37,2013-09-19 08:04:00,
2013-09-19 04:09:00,46.2,42.6,30.07,SSW,202,0.0,0.0,87,0.00,CLR,,0.00,WeatherDisplay:10.37,2013-09-19 08:09:00,
2013-09-19 04:14:00,46.0,42.4,30.07,SSW,202,0.0,0.0,87,0.00,CLR,,0.00,WeatherDisplay:10.37,2013-09-19 08:14:00,
2013-09-19 04:19:00,46.0,42.4,30.07,SSW,202,0.0,0.0,87,0.00,CLR,,0.00,WeatherDisplay:10.37,2013-09-19 08:19:00,
2013-09-19 04:24:00,46.0,42.7,30.07,SSW,202,0.0,0.0,88,0.00,CLR,,0.00,WeatherDisplay:10.37,2013-09-19 08:24:00,
2013-09-19 04:29:00,46.0,42.7,30.07,SSW,202,0.0,0.0,88,0.00,CLR,,0.00,WeatherDisplay:10.37,2013-09-19 08:29:00,
2013-09-19 04:35:00,46.0,42.7,30.07,SSW,202,0.0,0.0,88,0.00,CLR,,0.00,WeatherDisplay:10.37,2013-09-19 08:35:00,
2013-09-19 04:40:00,45.9,42.5,30.06,SSW,202,0.0,0.0,88,0.00,CLR,,0.00,WeatherDisplay:10.37,2013-09-19 08:40:00,
2013-09-19 04:45:00,45.9,42.5,30.07,SSW,202,0.0,0.0,88,0.00,CLR,,0.00,WeatherDisplay:10.37,2013-09-19 08:45:00,
2013-09-19 04:50:00,45.7,42.0,30.06,SSW,202,0.0,0.0,87,0.00,CLR,,0.00,WeatherDisplay:10.37,2013-09-19 08:50:00,
2013-09-19 04:55:00,45.5,41.9,30.06,SSW,202,0.0,0.0,87,0.00,CLR,,0.00,WeatherDisplay:10.37,2013-09-19 08:55:00,
2013-09-19 05:00:00,45.3,41.7,30.06,SSW,202,0.0,0.0,87,0.00,CLR,,0.00,WeatherDisplay:10.37,2013-09-19 09:00:00,
2013-09-19 05:05:00,45.1,41.5,30.06,SSW,202,0.0,0.0,87,0.00,CLR,,0.00,WeatherDisplay:10.37,2013-09-19 09:05:00,
2013-09-19 05:10:00,45.0,41.3,30.06,SSW,202,0.0,0.0,87,0.00,CLR,,0.00,WeatherDisplay:10.37,2013-09-19 09:10:00,
2013-09-19 05:15:00,45.0,41.3,30.06,SSW,202,0.0,0.0,87,0.00,CLR,,0.00,WeatherDisplay:10.37,2013-09-19 09:15:00,
2013-09-19 05:20:00,44.8,41.1,30.06,SSW,202,0.0,0.0,87,0.00,CLR,,0.00,WeatherDisplay:10.37,2013-09-19 09:20:00,
2013-09-19 05:25:00,44.8,41.1,30.06,SSW,202,0.0,0.0,87,0.00,CLR,,0.00,WeatherDisplay:10.37,2013-09-19 09:25:00,
2013-09-19 05:30:00,44.6,41.0,30.06,SSW,202,0.0,0.0,87,0.00,CLR,,0.00,WeatherDisplay:10.37,2013-09-19 09:30:00,
2013-09-19 05:35:00,44.6,41.0,30.06,SSW,202,0.0,0.0,87,0.00,CLR,,0.00,WeatherDisplay:10.37,2013-09-19 09:35:00,
2013-09-19 05:40:00,44.4,40.8,30.06,SSW,202,0.0,0.0,87,0.00,CLR,,0.00,WeatherDisplay:10.37,2013-09-19 09:40:00,
2013-09-19 05:45:00,44.4,40.8,30.06,SSW,202,0.0,0.0,87,0.00,CLR,,0.00,WeatherDisplay:10.37,2013-09-19 09:45:00,
2013-09-19 05:50:00,44.2,40.9,30.06,SSW,202,0.0,0.0,88,0.00,CLR,,0.00,WeatherDisplay:10.37,2013-09-19 09:50:00,
2013-09-19 05:55:00,44.2,40.9,30.06,SSW,202,0.0,0.0,88,0.00,CLR,,0.00,WeatherDisplay:10.37,2013-09-19 09:55:00,
2013-09-19 06:00:00,44.2,40.9,30.06,SSW,202,0.0,0.0,88,0.00,CLR,,0.00,WeatherDisplay:10.37,2013-09-19 10:00:00,
2013-09-19 06:05:00,44.2,40.6,30.06,SSW,202,0.0,0.0,87,0.00,CLR,,0.00,WeatherDisplay:10.37,2013-09-19 10:05:00,
2013-09-19 06:10:00,44.2,40.6,30.06,SSW,202,0.0,0.0,87,0.00,CLR,,0.00,WeatherDisplay:10.37,2013-09-19 10:10:00,
2013-09-19 06:15:00,44.1,40.4,30.06,SSW,202,0.0,0.0,87,0.00,CLR,,0.00,WeatherDisplay:10.37,2013-09-19 10:15:00,
2013-09-19 06:20:00,43.9,40.3,30.06,SSW,202,0.0,0.0,87,0.00,CLR,,0.00,WeatherDisplay:10.37,2013-09-19 10:20:00,
2013-09-19 06:25:00,43.9,40.3,30.06,SSW,202,0.0,0.0,87,0.00,CLR,,0.00,WeatherDisplay:10.37,2013-09-19 10:25:00,
2013-09-19 06:30:00,43.9,40.6,30.06,SSW,202,0.0,0.0,88,0.00,CLR,,0.00,WeatherDisplay:10.37,2013-09-19 10:30:00,
2013-09-19 06:35:00,43.9,40.6,30.06,SSW,202,0.0,0.0,88,0.00,CLR,,0.00,WeatherDisplay:10.37,2013-09-19 10:35:00,
2013-09-19 06:40:00,43.9,40.6,30.06,SSW,202,0.0,0.0,88,0.00,CLR,,0.00,WeatherDisplay:10.37,2013-09-19 10:40:00,
2013-09-19 06:45:00,43.9,40.6,30.06,SSW,202,0.0,0.0,88,0.00,CLR,,0.00,WeatherDisplay:10.37,2013-09-19 10:45:00,
2013-09-19 06:50:00,43.9,40.6,30.06,SSW,202,0.0,0.0,88,0.00,CLR,,0.00,WeatherDisplay:10.37,2013-09-19 10:50:00,
2013-09-19 06:55:00,44.1,40.7,30.06,SSW,202,0.0,0.0,88,0.00,CLR,,0.00,WeatherDisplay:10.37,2013-09-19 10:55:00,
2013-09-19 07:00:00,44.2,40.9,30.07,SSW,202,0.0,0.0,88,0.00,CLR,,0.00,WeatherDisplay:10.37,2013-09-19 11:00:00,
2013-09-19 07:05:00,44.4,41.1,30.07,SSW,202,0.0,0.0,88,0.00,CLR,,0.00,WeatherDisplay:10.37,2013-09-19 11:05:00,
2013-09-19 07:10:00,44.8,41.4,30.06,SSW,202,0.0,0.0,88,0.00,CLR,,0.00,WeatherDisplay:10.37,2013-09-19 11:10:00,
2013-09-19 07:15:00,45.1,41.8,30.06,SSW,202,0.0,0.0,88,0.00,CLR,,0.00,WeatherDisplay:10.37,2013-09-19 11:15:00,
2013-09-19 07:20:00,45.5,42.2,30.06,SSW,202,0.0,0.0,88,0.00,CLR,,0.00,WeatherDisplay:10.37,2013-09-19 11:20:00,
2013-09-19 07:25:00,45.7,42.3,30.06,SSW,202,0.0,0.0,88,0.00,CLR,,0.00,WeatherDisplay:10.37,2013-09-19 11:25:00,
2013-09-19 07:30:00,46.0,42.7,30.06,SSW,202,0.0,0.0,88,0.00,CLR,,0.00,WeatherDisplay:10.37,2013-09-19 11:30:00,
2013-09-19 07:35:00,46.6,43.2,30.06,SSW,202,0.0,0.0,88,0.00,CLR,,0.00,WeatherDisplay:10.37,2013-09-19 11:35:00,
2013-09-19 07:40:00,47.3,43.9,30.06,SSW,202,0.0,0.0,88,0.00,CLR,,0.00,WeatherDisplay:10.37,2013-09-19 11:40:00,
2013-09-19 07:45:00,48.0,44.6,30.06,SSW,202,0.0,0.0,88,0.00,CLR,,0.00,WeatherDisplay:10.37,2013-09-19 11:45:00,
2013-09-19 07:50:00,48.9,45.5,30.06,SSW,202,0.0,0.0,88,0.00,CLR,,0.00,WeatherDisplay:10.37,2013-09-19 11:50:00,
2013-09-19 07:55:00,49.6,46.2,30.06,SSW,202,0.0,0.0,88,0.00,CLR,,0.00,WeatherDisplay:10.37,2013-09-19 11:55:00,
2013-09-19 08:00:00,50.5,47.1,30.06,SSW,202,0.0,0.0,88,0.00,CLR,,0.00,WeatherDisplay:10.37,2013-09-19 12:00:00,
2013-09-19 08:05:00,51.4,48.3,30.06,SSW,202,0.0,0.0,89,0.00,CLR,,0.00,WeatherDisplay:10.37,2013-09-19 12:05:00,
2013-09-19 08:10:00,52.2,49.0,30.06,SSW,202,0.0,0.0,89,0.00,CLR,,0.00,WeatherDisplay:10.37,2013-09-19 12:10:00,
2013-09-19 08:15:00,53.1,49.9,30.06,SSW,202,0.0,0.0,89,0.00,CLR,,0.00,WeatherDisplay:10.37,2013-09-19 12:15:00,
2013-09-19 08:20:00,53.8,50.9,30.06,SSW,202,0.0,0.0,90,0.00,CLR,,0.00,WeatherDisplay:10.37,2013-09-19 12:20:00,
2013-09-19 08:25:00,54.7,51.8,30.06,SSW,202,0.0,0.0,90,0.00,CLR,,0.00,WeatherDisplay:10.37,2013-09-19 12:25:00,
2013-09-19 08:30:00,55.4,52.5,30.06,SSW,202,0.0,0.0,90,0.00,CLR,,0.00,WeatherDisplay:10.37,2013-09-19 12:30:00,
2013-09-19 08:35:00,56.3,53.1,30.07,SSW,202,0.0,0.0,89,0.00,CLR,,0.00,WeatherDisplay:10.37,2013-09-19 12:35:00,
2013-09-19 08:40:00,56.8,53.6,30.07,SSW,202,0.0,0.0,89,0.00,CLR,,0.00,WeatherDisplay:10.37,2013-09-19 12:40:00,
2013-09-19 08:45:00,57.6,54.0,30.07,SSW,202,0.0,0.0,88,0.00,CLR,,0.00,WeatherDisplay:10.37,2013-09-19 12:45:00,
2013-09-19 08:50:00,58.3,54.7,30.07,SSW,202,0.0,0.0,88,0.00,CLR,,0.00,WeatherDisplay:10.37,2013-09-19 12:50:00,
2013-09-19 08:55:00,59.0,55.1,30.07,SSW,202,0.0,0.0,87,0.00,CLR,,0.00,WeatherDisplay:10.37,2013-09-19 12:55:00,
2013-09-19 09:00:00,59.7,55.5,30.07,SSW,202,0.0,0.0,86,0.00,CLR,,0.00,WeatherDisplay:10.37,2013-09-19 13:00:00,
2013-09-19 09:05:00,60.3,55.7,30.06,SSW,202,0.0,0.0,85,0.00,CLR,,0.00,WeatherDisplay:10.37,2013-09-19 13:05:00,
2013-09-19 09:10:00,61.0,56.1,30.06,SSW,202,0.0,0.0,84,0.00,CLR,,0.00,WeatherDisplay:10.37,2013-09-19 13:10:00,
2013-09-19 09:15:00,61.5,56.0,30.06,SSW,202,0.0,0.0,82,0.00,CLR,,0.00,WeatherDisplay:10.37,2013-09-19 13:15:00,
2013-09-19 09:20:00,61.9,55.3,30.07,SSW,202,0.0,0.0,79,0.00,CLR,,0.00,WeatherDisplay:10.37,2013-09-19 13:20:00,
2013-09-19 09:25:00,62.4,56.2,30.06,SSW,202,0.0,0.0,80,0.00,CLR,,0.00,WeatherDisplay:10.37,2013-09-19 13:25:00,
2013-09-19 09:30:00,63.0,56.3,30.06,SSW,202,0.0,0.0,79,0.00,CLR,,0.00,WeatherDisplay:10.37,2013-09-19 13:30:00,
2013-09-19 09:35:00,63.3,55.6,30.07,NW,315,0.7,0.0,76,0.00,CLR,,0.00,WeatherDisplay:10.37,2013-09-19 13:35:00,
2013-09-19 09:40:00,63.9,56.1,30.07,SSW,202,0.9,2.3,76,0.00,CLR,,0.00,WeatherDisplay:10.37,2013-09-19 13:40:00,
2013-09-19 09:45:00,64.4,55.9,30.07,North,0,1.1,2.3,74,0.00,CLR,,0.00,WeatherDisplay:10.37,2013-09-19 13:45:00,
2013-09-19 09:50:00,64.8,56.3,30.07,NW,315,0.0,3.5,74,0.00,CLR,,0.00,WeatherDisplay:10.37,2013-09-19 13:50:00,
2013-09-19 09:55:00,65.3,56.4,30.07,North,0,0.7,0.0,73,0.00,CLR,,0.00,WeatherDisplay:10.37,2013-09-19 13:55:00,
2013-09-19 10:00:00,65.8,57.3,30.06,ESE,112,0.2,0.2,74,0.00,CLR,,0.00,WeatherDisplay:10.37,2013-09-19 14:00:00,
2013-09-19 10:05:00,66.2,57.3,30.06,NNW,338,0.0,1.1,73,0.00,CLR,,0.00,WeatherDisplay:10.37,2013-09-19 14:05:00,
2013-09-19 10:10:00,66.6,57.3,30.06,ESE,112,0.2,0.2,72,0.00,CLR,,0.00,WeatherDisplay:10.37,2013-09-19 14:10:00,
2013-09-19 10:15:00,66.9,56.8,30.06,NNW,338,0.5,1.1,70,0.00,CLR,,0.00,WeatherDisplay:10.37,2013-09-19 14:15:00,
2013-09-19 10:20:00,67.3,57.2,30.06,SSW,202,1.1,1.1,70,0.00,CLR,,0.00,WeatherDisplay:10.37,2013-09-19 14:20:00,
2013-09-19 10:25:00,67.8,57.7,30.06,WSW,248,0.2,0.2,70,0.00,CLR,,0.00,WeatherDisplay:10.37,2013-09-19 14:25:00,
2013-09-19 10:30:00,68.0,56.2,30.06,SSE,158,0.5,2.3,66,0.00,CLR,,0.00,WeatherDisplay:10.37,2013-09-19 14:30:00,
2013-09-19 10:35:00,68.4,57.4,30.06,SSW,202,1.1,1.1,68,0.00,CLR,,0.00,WeatherDisplay:10.37,2013-09-19 14:35:00,
2013-09-19 10:40:00,68.7,57.3,30.06,NNE,22,1.1,1.1,67,0.00,CLR,,0.00,WeatherDisplay:10.37,2013-09-19 14:40:00,
2013-09-19 10:45:00,69.1,56.8,30.06,NNW,338,0.5,1.1,65,0.00,CLR,,0.00,WeatherDisplay:10.37,2013-09-19 14:45:00,
2013-09-19 10:50:00,69.3,57.0,30.06,ENE,68,1.4,2.3,65,0.00,CLR,,0.00,WeatherDisplay:10.37,2013-09-19 14:50:00,
2013-09-19 10:55:00,69.4,56.3,30.06,ESE,112,0.2,0.2,63,0.00,CLR,,0.00,WeatherDisplay:10.37,2013-09-19 14:55:00,
2013-09-19 11:00:00,69.8,57.5,30.05,East,90,0.5,1.1,65,0.00,CLR,,0.00,WeatherDisplay:10.37,2013-09-19 15:00:00,
2013-09-19 11:05:00,70.2,57.8,30.05,NE,45,0.2,1.1,65,0.00,CLR,,0.00,WeatherDisplay:10.37,2013-09-19 15:05:00,
2013-09-19 11:10:00,70.5,58.2,30.05,ENE,68,0.5,0.5,65,0.00,CLR,,0.00,WeatherDisplay:10.37,2013-09-19 15:10:00,
2013-09-19 11:15:00,70.9,58.1,30.05,SSW,202,0.5,2.3,64,0.00,CLR,,0.00,WeatherDisplay:10.37,2013-09-19 15:15:00,
2013-09-19 11:20:00,71.2,58.0,30.05,ENE,68,0.5,1.1,63,0.00,CLR,,0.00,WeatherDisplay:10.37,2013-09-19 15:20:00,
2013-09-19 11:25:00,71.6,58.3,30.05,North,0,0.5,1.1,63,0.00,CLR,,0.00,WeatherDisplay:10.37,2013-09-19 15:25:00,
2013-09-19 11:30:00,72.0,59.1,30.05,SW,225,0.5,2.3,64,0.00,CLR,,0.00,WeatherDisplay:10.37,2013-09-19 15:30:00,
2013-09-19 11:35:00,72.3,59.0,30.05,SSW,202,1.1,3.5,63,0.00,CLR,,0.00,WeatherDisplay:10.37,2013-09-19 15:35:00,
2013-09-19 11:40:00,72.5,58.7,30.05,SW,225,2.6,2.6,62,0.00,CLR,,0.00,WeatherDisplay:10.37,2013-09-19 15:40:00,
2013-09-19 11:45:00,72.7,59.4,30.05,SW,225,2.6,2.6,63,0.00,CLR,,0.00,WeatherDisplay:10.37,2013-09-19 15:45:00,
2013-09-19 11:50:00,72.9,59.1,30.04,WSW,248,1.8,2.3,62,0.00,CLR,,0.00,WeatherDisplay:10.37,2013-09-19 15:50:00,
2013-09-19 11:55:00,73.0,59.2,30.04,WSW,248,1.8,2.3,62,0.00,CLR,,0.00,WeatherDisplay:10.37,2013-09-19 15:55:00,
2013-09-19 12:00:00,73.0,58.3,30.04,WSW,248,1.8,2.3,60,0.00,CLR,,0.00,WeatherDisplay:10.37,2013-09-19 16:00:00,
2013-09-19 12:05:00,73.2,59.0,30.04,WSW,248,1.8,2.3,61,0.00,CLR,,0.00,WeatherDisplay:10.37,2013-09-19 16:05:00,
2013-09-19 12:10:00,73.4,59.6,30.04,WSW,248,1.8,2.3,62,0.00,CLR,,0.00,WeatherDisplay:10.37,2013-09-19 16:10:00,
2013-09-19 12:15:00,73.8,59.5,30.04,WSW,248,1.8,2.3,61,0.00,CLR,,0.00,WeatherDisplay:10.37,2013-09-19 16:15:00,
2013-09-19 12:20:00,73.6,59.8,30.04,WSW,248,1.8,2.3,62,0.00,CLR,,0.00,WeatherDisplay:10.37,2013-09-19 16:20:00,
2013-09-19 12:25:00,73.8,59.9,30.04,WSW,248,1.8,2.3,62,0.00,CLR,,0.00,WeatherDisplay:10.37,2013-09-19 16:25:00,
2013-09-19 12:30:00,73.8,60.4,30.04,WSW,248,1.8,2.3,63,0.00,CLR,,0.00,WeatherDisplay:10.37,2013-09-19 16:30:00,
2013-09-19 12:35:00,73.9,60.1,30.04,WSW,248,1.8,2.3,62,0.00,CLR,,0.00,WeatherDisplay:10.37,2013-09-19 16:35:00,
2013-09-19 12:40:00,74.3,60.9,30.04,WSW,248,1.8,2.3,63,0.00,CLR,,0.00,WeatherDisplay:10.37,2013-09-19 16:40:00,
2013-09-19 12:45:00,74.5,60.1,30.04,WSW,248,1.8,2.3,61,0.00,CLR,,0.00,WeatherDisplay:10.37,2013-09-19 16:45:00,
2013-09-19 12:50:00,74.5,60.6,30.03,WSW,248,1.8,2.3,62,0.00,CLR,,0.00,WeatherDisplay:10.37,2013-09-19 16:50:00,
2013-09-19 12:55:00,74.7,60.8,30.04,WSW,248,1.8,2.3,62,0.00,CLR,,0.00,WeatherDisplay:10.37,2013-09-19 16:55:00,
2013-09-19 13:00:00,74.7,59.9,30.03,WSW,248,1.8,2.3,60,0.00,CLR,,0.00,WeatherDisplay:10.37,2013-09-19 17:00:00,
2013-09-19 13:05:00,74.8,60.5,30.03,WSW,248,1.8,2.3,61,0.00,CLR,,0.00,WeatherDisplay:10.37,2013-09-19 17:05:00,
2013-09-19 13:10:00,74.8,60.0,30.03,WSW,248,1.8,2.3,60,0.00,CLR,,0.00,WeatherDisplay:10.37,2013-09-19 17:10:00,
2013-09-19 13:15:00,75.2,61.3,30.03,West,270,2.4,2.4,62,0.00,CLR,,0.00,WeatherDisplay:10.37,2013-09-19 17:15:00,
2013-09-19 13:20:00,75.4,60.1,30.03,SW,225,4.5,4.5,59,0.00,CLR,,0.00,WeatherDisplay:10.37,2013-09-19 17:20:00,
2013-09-19 13:25:00,75.4,60.1,30.03,SSE,158,3.6,3.6,59,0.00,CLR,,0.00,WeatherDisplay:10.37,2013-09-19 17:25:00,
2013-09-19 13:30:00,75.4,60.1,30.03,SW,225,1.8,2.3,59,0.00,CLR,,0.00,WeatherDisplay:10.37,2013-09-19 17:30:00,
2013-09-19 13:35:00,75.6,60.7,30.02,SSW,202,0.5,1.1,60,0.00,CLR,,0.00,WeatherDisplay:10.37,2013-09-19 17:35:00,
2013-09-19 13:40:00,75.6,61.2,30.03,WNW,292,1.1,3.5,61,0.00,CLR,,0.00,WeatherDisplay:10.37,2013-09-19 17:40:00,
2013-09-19 13:45:00,75.7,60.9,30.02,SSW,202,1.8,2.3,60,0.00,CLR,,0.00,WeatherDisplay:10.37,2013-09-19 17:45:00,
2013-09-19 13:50:00,76.8,62.8,30.02,SSW,202,4.0,6.9,62,0.00,CLR,,0.00,WeatherDisplay:10.37,2013-09-19 17:50:00,
2013-09-19 13:55:00,77.4,60.9,30.02,SSE,158,2.2,3.5,57,0.00,CLR,,0.00,WeatherDisplay:10.37,2013-09-19 17:55:00,
2013-09-19 14:00:00,76.6,61.2,30.02,SW,225,3.3,3.5,59,0.00,CLR,,0.00,WeatherDisplay:10.37,2013-09-19 18:00:00,
2013-09-19 14:05:00,74.7,60.8,30.02,WSW,248,1.8,2.3,62,0.00,CLR,,0.00,WeatherDisplay:10.37,2013-09-19 18:05:00,
2013-09-19 14:10:00,77.9,62.4,30.01,SW,225,0.5,2.3,59,0.00,CLR,,0.00,WeatherDisplay:10.37,2013-09-19 18:10:00,
2013-09-19 14:15:00,84.2,63.5,30.01,SW,225,2.6,2.6,50,0.00,CLR,,0.00,WeatherDisplay:10.37,2013-09-19 18:15:00,
2013-09-19 14:20:00,88.9,66.7,30.01,SW,225,1.1,3.5,48,0.00,CLR,,0.00,WeatherDisplay:10.37,2013-09-19 18:20:00,
2013-09-19 14:25:00,84.6,62.1,30.02,SSW,202,1.8,1.8,47,0.00,CLR,,0.00,WeatherDisplay:10.37,2013-09-19 18:25:00,
2013-09-19 14:30:00,82.4,60.7,30.02,SSW,202,3.8,3.8,48,0.00,CLR,,0.00,WeatherDisplay:10.37,2013-09-19 18:30:00,
2013-09-19 14:35:00,82.4,60.7,30.01,SSW,202,3.8,3.8,48,0.00,CLR,,0.00,WeatherDisplay:10.37,2013-09-19 18:35:00,
2013-09-19 14:40:00,82.4,60.7,30.01,SSW,202,3.8,3.8,48,0.00,CLR,,0.00,WeatherDisplay:10.37,2013-09-19 18:40:00,
2013-09-19 14:45:00,82.4,60.7,30.01,SSW,202,3.8,3.8,48,0.00,CLR,,0.00,WeatherDisplay:10.37,2013-09-19 18:45:00,
2013-09-19 14:50:00,77.4,58.9,30.01,SSW,202,2.4,2.4,53,0.00,CLR,,0.00,WeatherDisplay:10.37,2013-09-19 18:50:00,
2013-09-19 14:55:00,77.0,59.1,30.01,SW,225,1.4,1.4,54,0.00,CLR,,0.00,WeatherDisplay:10.37,2013-09-19 18:55:00,
2013-09-19 15:00:00,76.5,59.1,30.01,SSW,202,3.6,3.6,55,0.00,CLR,,0.00,WeatherDisplay:10.37,2013-09-19 19:00:00,
2013-09-19 15:05:00,75.7,59.4,30.01,West,270,0.5,1.1,57,0.00,CLR,,0.00,WeatherDisplay:10.37,2013-09-19 19:05:00,
2013-09-19 15:10:00,75.4,59.6,30.00,South,180,0.2,0.2,58,0.00,CLR,,0.00,WeatherDisplay:10.37,2013-09-19 19:10:00,
2013-09-19 15:15:00,74.8,59.5,30.00,South,180,0.0,0.0,59,0.00,CLR,,0.00,WeatherDisplay:10.37,2013-09-19 19:15:00,
2013-09-19 15:20:00,74.8,60.0,30.00,South,180,0.0,0.0,60,0.00,CLR,,0.00,WeatherDisplay:10.37,2013-09-19 19:20:00,
2013-09-19 15:25:00,74.3,60.0,30.00,SSE,158,0.0,0.0,61,0.00,CLR,,0.00,WeatherDisplay:10.37,2013-09-19 19:25:00,
2013-09-19 15:30:00,74.1,59.8,30.00,SSE,158,0.0,0.0,61,0.00,CLR,,0.00,WeatherDisplay:10.37,2013-09-19 19:30:00,
2013-09-19 15:35:00,73.9,59.6,30.00,SSE,158,0.2,0.0,61,0.00,CLR,,0.00,WeatherDisplay:10.37,2013-09-19 19:35:00,
2013-09-19 15:40:00,73.8,59.9,30.00,SSE,158,0.0,0.0,62,0.00,CLR,,0.00,WeatherDisplay:10.37,2013-09-19 19:40:00,
2013-09-19 15:45:00,73.6,59.8,30.00,SSE,158,0.0,0.0,62,0.00,CLR,,0.00,WeatherDisplay:10.37,2013-09-19 19:45:00,
2013-09-19 15:50:00,73.4,60.0,29.99,SSE,158,0.0,0.0,63,0.00,CLR,,0.00,WeatherDisplay:10.37,2013-09-19 19:50:00,
2013-09-19 15:55:00,73.0,59.7,30.00,SSE,158,0.0,0.0,63,0.00,CLR,,0.00,WeatherDisplay:10.37,2013-09-19 19:55:00,
2013-09-19 16:00:00,73.0,59.2,30.00,SSE,158,0.0,0.0,62,0.00,CLR,,0.00,WeatherDisplay:10.37,2013-09-19 20:00:00,
2013-09-19 16:05:00,72.7,58.9,30.00,SSE,158,0.0,0.0,62,0.00,CLR,,0.00,WeatherDisplay:10.37,2013-09-19 20:05:00,
2013-09-19 16:10:00,72.3,58.6,29.99,SSE,158,0.0,0.0,62,0.00,CLR,,0.00,WeatherDisplay:10.37,2013-09-19 20:10:00,
2013-09-19 16:15:00,72.3,59.0,30.00,SSE,158,0.0,0.0,63,0.00,CLR,,0.00,WeatherDisplay:10.37,2013-09-19 20:15:00,
2013-09-19 16:20:00,72.1,59.3,30.00,SSE,158,0.0,0.0,64,0.00,CLR,,0.00,WeatherDisplay:10.37,2013-09-19 20:20:00,
2013-09-19 16:25:00,72.0,59.6,30.00,SSE,158,0.0,0.0,65,0.00,CLR,,0.00,WeatherDisplay:10.37,2013-09-19 20:25:00,
2013-09-19 16:30:00,71.6,59.2,29.99,SSE,158,0.0,0.0,65,0.00,CLR,,0.00,WeatherDisplay:10.37,2013-09-19 20:30:00,
2013-09-19 16:35:00,71.6,59.2,29.99,SSE,158,0.0,0.0,65,0.00,CLR,,0.00,WeatherDisplay:10.37,2013-09-19 20:35:00,
2013-09-19 16:40:00,71.1,58.7,29.99,SSE,158,0.0,0.0,65,0.00,CLR,,0.00,WeatherDisplay:10.37,2013-09-19 20:40:00,
2013-09-19 16:45:00,70.9,58.5,29.99,SSE,158,0.0,0.0,65,0.00,CLR,,0.00,WeatherDisplay:10.37,2013-09-19 20:45:00,
2013-09-19 16:50:00,70.7,58.4,29.99,SSE,158,0.0,0.0,65,0.00,CLR,,0.00,WeatherDisplay:10.37,2013-09-19 20:50:00,
2013-09-19 16:55:00,70.7,58.8,29.99,SSE,158,0.0,0.0,66,0.00,CLR,,0.00,WeatherDisplay:10.37,2013-09-19 20:55:00,
2013-09-19 17:00:00,70.5,59.4,29.99,SSE,158,0.0,0.0,68,0.00,CLR,,0.00,WeatherDisplay:10.37,2013-09-19 21:00:00,
2013-09-19 17:05:00,70.5,59.4,29.99,SSE,158,0.0,0.0,68,0.00,CLR,,0.00,WeatherDisplay:10.37,2013-09-19 21:05:00,
2013-09-19 17:10:00,70.2,59.5,29.99,SSE,158,0.0,0.0,69,0.00,CLR,,0.00,WeatherDisplay:10.37,2013-09-19 21:10:00,
2013-09-19 17:15:00,70.0,59.3,29.99,SSE,158,0.0,0.0,69,0.00,CLR,,0.00,WeatherDisplay:10.37,2013-09-19 21:15:00,
2013-09-19 17:20:00,69.8,59.6,29.99,SSE,158,0.0,0.0,70,0.00,CLR,,0.00,WeatherDisplay:10.37,2013-09-19 21:20:00,
2013-09-19 17:25:00,69.6,59.4,29.99,SSE,158,0.0,0.0,70,0.00,CLR,,0.00,WeatherDisplay:10.37,2013-09-19 21:25:00,
2013-09-19 17:30:00,69.4,59.2,30.00,SSE,158,0.0,0.0,70,0.00,CLR,,0.00,WeatherDisplay:10.37,2013-09-19 21:30:00,
2013-09-19 17:35:00,69.3,59.5,30.00,SSE,158,0.0,0.0,71,0.00,CLR,,0.00,WeatherDisplay:10.37,2013-09-19 21:35:00,
2013-09-19 17:40:00,69.1,59.3,30.00,SSE,158,0.0,0.0,71,0.00,CLR,,0.00,WeatherDisplay:10.37,2013-09-19 21:40:00,
2013-09-19 17:45:00,68.9,58.7,30.00,SSE,158,0.0,0.0,70,0.00,CLR,,0.00,WeatherDisplay:10.37,2013-09-19 21:45:00,
2013-09-19 17:50:00,68.4,58.2,30.00,SSE,158,0.0,0.0,70,0.00,CLR,,0.00,WeatherDisplay:10.37,2013-09-19 21:50:00,
2013-09-19 17:55:00,68.2,58.0,30.00,SSE,158,0.0,0.0,70,0.00,CLR,,0.00,WeatherDisplay:10.37,2013-09-19 21:55:00,
2013-09-19 18:00:00,67.8,57.7,30.00,SSE,158,0.0,0.0,70,0.00,CLR,,0.00,WeatherDisplay:10.37,2013-09-19 22:00:00,
2013-09-19 18:05:00,67.6,57.5,30.00,SSE,158,0.0,0.0,70,0.00,CLR,,0.00,WeatherDisplay:10.37,2013-09-19 22:05:00,
2013-09-19 18:10:00,67.5,57.3,30.00,SSE,158,0.0,0.0,70,0.00,CLR,,0.00,WeatherDisplay:10.37,2013-09-19 22:10:00,
2013-09-19 18:15:00,67.3,57.2,30.00,SSE,158,0.0,0.0,70,0.00,CLR,,0.00,WeatherDisplay:10.37,2013-09-19 22:15:00,
2013-09-19 18:20:00,66.9,56.8,30.00,SSE,158,0.0,0.0,70,0.00,CLR,,0.00,WeatherDisplay:10.37,2013-09-19 22:20:00,
2013-09-19 18:25:00,66.6,56.5,30.00,SSE,158,0.0,0.0,70,0.00,CLR,,0.00,WeatherDisplay:10.37,2013-09-19 22:25:00,
2013-09-19 18:30:00,66.4,56.3,30.00,SSE,158,0.0,0.0,70,0.00,CLR,,0.00,WeatherDisplay:10.37,2013-09-19 22:30:00,
2013-09-19 18:35:00,66.2,56.1,30.00,SSE,158,0.0,0.0,70,0.00,CLR,,0.00,WeatherDisplay:10.37,2013-09-19 22:35:00,
2013-09-19 18:40:00,65.8,55.8,30.00,SSE,158,0.0,0.0,70,0.00,CLR,,0.00,WeatherDisplay:10.37,2013-09-19 22:40:00,
2013-09-19 18:45:00,65.3,55.7,30.00,SSE,158,0.0,0.0,71,0.00,CLR,,0.00,WeatherDisplay:10.37,2013-09-19 22:45:00,
2013-09-19 18:50:00,64.9,55.3,30.00,SSE,158,0.0,0.0,71,0.00,CLR,,0.00,WeatherDisplay:10.37,2013-09-19 22:50:00,
2013-09-19 18:55:00,64.6,55.3,30.00,SSE,158,0.0,0.0,72,0.00,CLR,,0.00,WeatherDisplay:10.37,2013-09-19 22:55:00,
2013-09-19 19:00:00,64.4,55.2,30.00,SSE,158,0.0,0.0,72,0.00,CLR,,0.00,WeatherDisplay:10.37,2013-09-19 23:00:00,
2013-09-19 19:05:00,63.9,55.0,30.00,SSE,158,0.0,0.0,73,0.00,CLR,,0.00,WeatherDisplay:10.37,2013-09-19 23:05:00,
2013-09-19 19:10:00,63.7,54.9,30.00,SSE,158,0.0,0.0,73,0.00,CLR,,0.00,WeatherDisplay:10.37,2013-09-19 23:10:00,
2013-09-19 19:15:00,63.5,54.7,30.00,SSE,158,0.0,0.0,73,0.00,CLR,,0.00,WeatherDisplay:10.37,2013-09-19 23:15:00,
2013-09-19 19:20:00,63.0,54.5,30.00,SSE,158,0.0,0.0,74,0.00,CLR,,0.00,WeatherDisplay:10.37,2013-09-19 23:20:00,
2013-09-19 19:25:00,62.8,54.4,30.00,SSE,158,0.0,0.0,74,0.00,CLR,,0.00,WeatherDisplay:10.37,2013-09-19 23:25:00,
2013-09-19 19:30:00,62.4,54.0,30.00,SSE,158,0.0,0.0,74,0.00,CLR,,0.00,WeatherDisplay:10.37,2013-09-19 23:30:00,
2013-09-19 19:35:00,62.2,54.2,30.00,SSE,158,0.0,0.0,75,0.00,CLR,,0.00,WeatherDisplay:10.37,2013-09-19 23:35:00,
2013-09-19 19:40:00,62.2,54.2,30.00,SSE,158,0.0,0.0,75,0.00,CLR,,0.00,WeatherDisplay:10.37,2013-09-19 23:40:00,
2013-09-19 19:45:00,61.9,53.9,30.00,SSE,158,0.0,0.0,75,0.00,CLR,,0.00,WeatherDisplay:10.37,2013-09-19 23:45:00,
2013-09-19 19:50:00,61.9,54.2,30.01,SSE,158,0.0,0.0,76,0.00,CLR,,0.00,WeatherDisplay:10.37,2013-09-19 23:50:00,
2013-09-19 19:55:00,61.7,54.1,30.01,SSE,158,0.0,0.0,76,0.00,CLR,,0.00,WeatherDisplay:10.37,2013-09-19 23:55:00,
2013-09-19 20:00:00,61.3,53.7,30.01,SSE,158,0.0,0.0,76,0.00,CLR,,0.00,WeatherDisplay:10.37,2013-09-20 00:00:00,
2013-09-19 20:05:00,61.3,54.1,30.01,SSE,158,0.0,0.0,77,0.00,CLR,,0.00,WeatherDisplay:10.37,2013-09-20 00:05:00,
2013-09-19 20:10:00,61.0,53.7,30.01,SSE,158,0.0,0.0,77,0.00,CLR,,0.00,WeatherDisplay:10.37,2013-09-20 00:10:00,
2013-09-19 20:15:00,60.8,53.9,30.01,SSE,158,0.0,0.0,78,0.00,CLR,,0.00,WeatherDisplay:10.37,2013-09-20 00:15:00,
2013-09-19 20:20:00,60.6,53.7,30.01,SSE,158,0.0,0.0,78,0.00,CLR,,0.00,WeatherDisplay:10.37,2013-09-20 00:20:00,
2013-09-19 20:25:00,60.6,54.1,30.02,SSE,158,0.0,0.0,79,0.00,CLR,,0.00,WeatherDisplay:10.37,2013-09-20 00:25:00,
2013-09-19 20:30:00,60.6,54.1,30.02,SSE,158,0.0,0.0,79,0.00,CLR,,0.00,WeatherDisplay:10.37,2013-09-20 00:30:00,
2013-09-19 20:35:00,60.4,53.9,30.02,SSE,158,0.0,0.0,79,0.00,CLR,,0.00,WeatherDisplay:10.37,2013-09-20 00:35:00,
2013-09-19 20:40:00,60.3,53.7,30.02,SSE,158,0.0,0.0,79,0.00,CLR,,0.00,WeatherDisplay:10.37,2013-09-20 00:40:00,
2013-09-19 20:45:00,60.1,53.5,30.02,SSE,158,0.0,0.0,79,0.00,CLR,,0.00,WeatherDisplay:10.37,2013-09-20 00:45:00,
2013-09-19 20:50:00,59.9,53.4,30.02,SSE,158,0.0,0.0,79,0.00,CLR,,0.00,WeatherDisplay:10.37,2013-09-20 00:50:00,
2013-09-19 20:55:00,59.5,53.0,30.02,SSE,158,0.0,0.0,79,0.00,CLR,,0.00,WeatherDisplay:10.37,2013-09-20 00:55:00,
2013-09-19 21:00:00,59.4,52.8,30.02,SSE,158,0.0,0.0,79,0.00,CLR,,0.00,WeatherDisplay:10.37,2013-09-20 01:00:00,
2013-09-19 21:05:00,59.2,52.7,30.01,SSE,158,0.0,0.0,79,0.00,CLR,,0.00,WeatherDisplay:10.37,2013-09-20 01:05:00,
2013-09-19 21:10:00,59.0,52.5,30.02,SSE,158,0.0,0.0,79,0.00,CLR,,0.00,WeatherDisplay:10.37,2013-09-20 01:10:00,
2013-09-19 21:15:00,58.8,52.7,30.02,SSE,158,0.0,0.0,80,0.00,CLR,,0.00,WeatherDisplay:10.37,2013-09-20 01:15:00,
2013-09-19 21:20:00,58.6,52.5,30.01,SSE,158,0.0,0.0,80,0.00,CLR,,0.00,WeatherDisplay:10.37,2013-09-20 01:20:00,
2013-09-19 21:25:00,58.5,52.6,30.01,SSE,158,0.0,0.0,81,0.00,CLR,,0.00,WeatherDisplay:10.37,2013-09-20 01:25:00,
2013-09-19 21:30:00,58.6,52.8,30.01,SSE,158,0.0,0.0,81,0.00,CLR,,0.00,WeatherDisplay:10.37,2013-09-20 01:30:00,
2013-09-19 21:35:00,58.6,52.8,30.01,SSE,158,0.0,0.0,81,0.00,CLR,,0.00,WeatherDisplay:10.37,2013-09-20 01:35:00,
2013-09-19 21:40:00,58.6,53.2,30.01,SSE,158,0.0,0.0,82,0.00,CLR,,0.00,WeatherDisplay:10.37,2013-09-20 01:40:00,
2013-09-19 21:45:00,58.6,52.8,30.01,SSE,158,0.0,0.0,81,0.00,CLR,,0.00,WeatherDisplay:10.37,2013-09-20 01:45:00,
2013-09-19 21:50:00,58.5,52.6,30.01,SSE,158,0.0,0.0,81,0.00,CLR,,0.00,WeatherDisplay:10.37,2013-09-20 01:50:00,
2013-09-19 21:55:00,58.3,52.5,30.02,SSE,158,0.0,0.0,81,0.00,CLR,,0.00,WeatherDisplay:10.37,2013-09-20 01:55:00,
2013-09-19 22:00:00,58.1,52.6,30.02,SSE,158,0.0,0.0,82,0.00,CLR,,0.00,WeatherDisplay:10.37,2013-09-20 02:00:00,
2013-09-19 22:05:00,57.9,52.5,30.02,SSE,158,0.0,0.0,82,0.00,CLR,,0.00,WeatherDisplay:10.37,2013-09-20 02:05:00,
2013-09-19 22:10:00,57.9,52.5,30.02,SSE,158,0.0,0.0,82,0.00,CLR,,0.00,WeatherDisplay:10.37,2013-09-20 02:10:00,
2013-09-19 22:15:00,57.7,52.3,30.02,SSE,158,0.0,0.0,82,0.00,CLR,,0.00,WeatherDisplay:10.37,2013-09-20 02:15:00,
2013-09-19 22:20:00,57.6,52.1,30.02,SSE,158,0.0,0.0,82,0.00,CLR,,0.00,WeatherDisplay:10.37,2013-09-20 02:20:00,
2013-09-19 22:25:00,57.6,52.4,30.02,SSE,158,0.0,0.0,83,0.00,CLR,,0.00,WeatherDisplay:10.37,2013-09-20 02:25:00,
2013-09-19 22:30:00,57.4,52.3,30.02,SSE,158,0.0,0.0,83,0.00,CLR,,0.00,WeatherDisplay:10.37,2013-09-20 02:30:00,
2013-09-19 22:35:00,57.2,52.1,30.02,SSE,158,0.0,0.0,83,0.00,CLR,,0.00,WeatherDisplay:10.37,2013-09-20 02:35:00,
2013-09-19 22:41:00,57.2,52.1,30.01,SSE,158,0.0,0.0,83,0.00,CLR,,0.00,WeatherDisplay:10.37,2013-09-20 02:41:00,
2013-09-19 22:46:00,57.2,52.1,30.01,SSE,158,0.0,0.0,83,0.00,CLR,,0.00,WeatherDisplay:10.37,2013-09-20 02:46:00,
2013-09-19 22:51:00,57.0,51.9,30.01,SSE,158,0.0,0.0,83,0.00,CLR,,0.00,WeatherDisplay:10.37,2013-09-20 02:51:00,
2013-09-19 22:56:00,56.8,51.7,30.01,SSE,158,0.0,0.0,83,0.00,CLR,,0.00,WeatherDisplay:10.37,2013-09-20 02:56:00,
2013-09-19 23:01:00,56.8,52.1,30.01,SSE,158,0.0,0.0,84,0.00,CLR,,0.00,WeatherDisplay:10.37,2013-09-20 03:01:00,
2013-09-19 23:06:00,56.7,51.9,30.01,SSE,158,0.0,0.0,84,0.00,CLR,,0.00,WeatherDisplay:10.37,2013-09-20 03:06:00,
2013-09-19 23:11:00,56.7,51.9,30.01,SSE,158,0.0,0.0,84,0.00,CLR,,0.00,WeatherDisplay:10.37,2013-09-20 03:11:00,
2013-09-19 23:16:00,56.5,51.7,30.01,SSE,158,0.0,0.0,84,0.00,CLR,,0.00,WeatherDisplay:10.37,2013-09-20 03:16:00,
2013-09-19 23:21:00,56.5,51.7,30.01,SSE,158,0.0,0.0,84,0.00,CLR,,0.00,WeatherDisplay:10.37,2013-09-20 03:21:00,
2013-09-19 23:26:00,56.3,51.5,30.01,SSE,158,0.0,0.0,84,0.00,CLR,,0.00,WeatherDisplay:10.37,2013-09-20 03:26:00,
2013-09-19 23:31:00,56.3,51.5,30.00,SSE,158,0.0,0.0,84,0.00,CLR,,0.00,WeatherDisplay:10.37,2013-09-20 03:31:00,
2013-09-19 23:36:00,56.1,51.4,30.00,SSE,158,0.0,0.0,84,0.00,CLR,,0.00,WeatherDisplay:10.37,2013-09-20 03:36:00,
2013-09-19 23:41:00,56.1,51.4,30.00,SSE,158,0.0,0.0,84,0.00,CLR,,0.00,WeatherDisplay:10.37,2013-09-20 03:41:00,
2013-09-19 23:46:00,56.1,51.4,30.00,SSE,158,0.0,0.0,84,0.00,CLR,,0.00,WeatherDisplay:10.37,2013-09-20 03:46:00,
2013-09-19 23:51:00,55.9,51.2,30.00,SSE,158,0.0,0.0,84,0.00,CLR,,0.00,WeatherDisplay:10.37,2013-09-20 03:51:00,
2013-09-19 23:56:00,55.9,51.5,30.01,SSE,158,0.0,0.0,85,0.00,CLR,,0.00,WeatherDisplay:10.37,2013-09-20 03:56:00,